createdAt,value
2019-05-29T00:00:03.539Z,9.77
2019-05-29T00:01:03.547Z,9.77
2019-05-29T00:02:03.542Z,9.77
2019-05-29T00:03:03.503Z,9.78
2019-05-29T00:04:03.492Z,9.80
2019-05-29T00:05:03.482Z,9.83
2019-05-29T00:06:03.471Z,9.85
2019-05-29T00:07:03.464Z,9.85
2019-05-29T00:08:03.512Z,9.86
2019-05-29T00:09:03.462Z,9.86
2019-05-29T00:10:03.439Z,9.89
2019-05-29T00:11:03.420Z,9.91
2019-05-29T00:12:03.420Z,9.92
2019-05-29T00:13:03.422Z,9.92
2019-05-29T00:14:17.888Z,9.91
2019-05-29T00:15:04.381Z,9.91
2019-05-29T00:16:03.379Z,9.86
2019-05-29T00:17:03.372Z,9.86
2019-05-29T00:18:03.370Z,9.86
2019-05-29T00:19:03.352Z,9.88
2019-05-29T00:20:03.342Z,9.89
2019-05-29T00:21:03.329Z,9.89
2019-05-29T00:22:03.312Z,9.88
2019-05-29T00:23:03.319Z,9.89
2019-05-29T00:24:03.298Z,9.89
2019-05-29T00:25:03.289Z,9.92
2019-05-29T00:26:03.279Z,9.92
2019-05-29T00:27:03.269Z,9.92
2019-05-29T00:28:03.271Z,9.92
2019-05-29T00:29:03.252Z,9.92
2019-05-29T00:30:03.238Z,9.92
2019-05-29T00:31:03.252Z,9.93
2019-05-29T00:32:03.228Z,9.95
2019-05-29T00:33:03.218Z,9.96
2019-05-29T00:34:03.202Z,9.98
2019-05-29T00:35:03.257Z,9.98
2019-05-29T00:36:03.183Z,9.99
2019-05-29T00:37:03.182Z,10.01
2019-05-29T00:38:03.223Z,9.99
2019-05-29T00:39:03.157Z,9.99
2019-05-29T00:40:03.147Z,9.96
2019-05-29T00:41:03.128Z,9.93
2019-05-29T00:42:03.117Z,9.92
2019-05-29T00:43:03.116Z,9.92
2019-05-29T00:44:03.098Z,9.91
2019-05-29T00:45:03.102Z,9.91
2019-05-29T00:46:03.085Z,9.92
2019-05-29T00:47:03.065Z,9.93
2019-05-29T00:48:03.077Z,9.92
2019-05-29T00:49:03.046Z,9.92
2019-05-29T00:50:03.035Z,9.91
2019-05-29T00:51:03.037Z,9.91
2019-05-29T00:52:03.019Z,9.92
2019-05-29T00:53:03.024Z,9.88
2019-05-29T00:54:02.995Z,9.83
2019-05-29T00:55:02.993Z,9.83
2019-05-29T00:56:02.985Z,9.81
2019-05-29T00:57:02.973Z,9.80
2019-05-29T00:58:02.975Z,9.77
2019-05-29T00:59:02.945Z,9.70
2019-05-29T01:00:02.934Z,9.67
2019-05-29T01:01:02.934Z,9.65
2019-05-29T01:02:02.925Z,9.55
2019-05-29T01:03:02.934Z,9.45
2019-05-29T01:04:02.904Z,9.44
2019-05-29T01:05:02.895Z,9.42
2019-05-29T01:06:02.892Z,9.48
2019-05-29T01:07:02.878Z,9.49
2019-05-29T01:08:02.862Z,9.53
2019-05-29T01:09:02.875Z,9.56
2019-05-29T01:10:02.862Z,9.59
2019-05-29T01:11:02.831Z,9.63
2019-05-29T01:12:02.822Z,9.65
2019-05-29T01:13:02.814Z,9.71
2019-05-29T01:14:02.812Z,9.74
2019-05-29T01:15:02.791Z,9.78
2019-05-29T01:16:02.781Z,9.81
2019-05-29T01:17:02.770Z,9.85
2019-05-29T01:18:02.761Z,9.88
2019-05-29T01:19:02.761Z,9.88
2019-05-29T01:20:02.740Z,9.89
2019-05-29T01:21:02.735Z,9.92
2019-05-29T01:22:02.721Z,9.93
2019-05-29T01:23:02.724Z,9.95
2019-05-29T01:24:02.720Z,9.96
2019-05-29T01:25:02.691Z,9.98
2019-05-29T01:26:02.681Z,9.99
2019-05-29T01:27:02.677Z,10.02
2019-05-29T01:28:02.659Z,10.01
2019-05-29T01:29:02.673Z,10.01
2019-05-29T01:30:02.641Z,9.99
2019-05-29T01:31:02.630Z,10.02
2019-05-29T01:32:02.631Z,10.01
2019-05-29T01:33:02.621Z,9.99
2019-05-29T01:34:02.619Z,9.99
2019-05-29T01:35:02.623Z,10.01
2019-05-29T01:36:02.578Z,10.02
2019-05-29T01:37:02.569Z,9.95
2019-05-29T01:38:02.568Z,9.92
2019-05-29T01:39:02.571Z,9.89
2019-05-29T01:40:16.595Z,9.88
2019-05-29T01:41:03.548Z,9.88
2019-05-29T01:42:02.517Z,9.85
2019-05-29T01:43:02.521Z,9.80
2019-05-29T01:44:02.517Z,9.77
2019-05-29T01:45:07.679Z,9.75
2019-05-29T01:46:03.488Z,9.74
2019-05-29T01:47:02.482Z,9.70
2019-05-29T01:48:02.466Z,9.68
2019-05-29T01:49:02.468Z,9.62
2019-05-29T01:50:02.447Z,9.62
2019-05-29T01:51:02.445Z,9.60
2019-05-29T01:52:02.426Z,9.60
2019-05-29T01:53:02.418Z,9.60
2019-05-29T01:54:02.416Z,9.59
2019-05-29T01:55:02.402Z,9.62
2019-05-29T01:56:02.386Z,9.62
2019-05-29T01:57:02.393Z,9.67
2019-05-29T01:58:02.365Z,9.70
2019-05-29T01:59:02.387Z,9.73
2019-05-29T02:00:02.345Z,9.77
2019-05-29T02:01:02.345Z,9.78
2019-05-29T02:02:02.331Z,9.83
2019-05-29T02:03:02.325Z,9.86
2019-05-29T02:04:02.336Z,9.86
2019-05-29T02:05:02.311Z,9.89
2019-05-29T02:06:02.290Z,9.92
2019-05-29T02:07:02.294Z,9.91
2019-05-29T02:08:02.277Z,9.91
2019-05-29T02:09:02.273Z,9.92
2019-05-29T02:10:02.256Z,9.93
2019-05-29T02:11:02.242Z,9.93
2019-05-29T02:12:02.237Z,9.91
2019-05-29T02:13:02.223Z,9.92
2019-05-29T02:14:02.236Z,9.92
2019-05-29T02:15:02.205Z,9.91
2019-05-29T02:16:02.192Z,9.85
2019-05-29T02:17:02.183Z,9.86
2019-05-29T02:18:02.188Z,9.86
2019-05-29T02:19:02.172Z,9.83
2019-05-29T02:20:02.163Z,9.86
2019-05-29T02:21:02.141Z,9.83
2019-05-29T02:22:02.143Z,9.85
2019-05-29T02:23:02.127Z,9.85
2019-05-29T02:24:02.124Z,9.86
2019-05-29T02:25:02.123Z,9.85
2019-05-29T02:26:02.092Z,9.86
2019-05-29T02:27:02.090Z,9.86
2019-05-29T02:28:02.072Z,9.89
2019-05-29T02:29:02.069Z,9.88
2019-05-29T02:30:02.101Z,9.91
2019-05-29T02:31:02.055Z,9.91
2019-05-29T02:32:02.035Z,9.91
2019-05-29T02:33:02.032Z,9.91
2019-05-29T02:34:02.044Z,9.92
2019-05-29T02:35:02.026Z,9.92
2019-05-29T02:36:02.006Z,9.91
2019-05-29T02:37:01.991Z,9.89
2019-05-29T02:38:01.995Z,9.89
2019-05-29T02:39:01.978Z,9.88
2019-05-29T02:40:01.987Z,9.86
2019-05-29T02:41:01.994Z,9.86
2019-05-29T02:42:01.942Z,9.88
2019-05-29T02:43:01.954Z,9.89
2019-05-29T02:44:01.950Z,9.89
2019-05-29T02:45:01.934Z,9.91
2019-05-29T02:46:01.900Z,9.91
2019-05-29T02:47:01.909Z,9.91
2019-05-29T02:48:01.947Z,9.92
2019-05-29T02:49:01.910Z,9.92
2019-05-29T02:50:01.878Z,9.91
2019-05-29T02:51:01.859Z,9.92
2019-05-29T02:52:01.839Z,9.91
2019-05-29T02:53:01.949Z,9.91
2019-05-29T02:54:01.826Z,9.89
2019-05-29T02:55:01.866Z,9.92
2019-05-29T02:56:01.809Z,9.92
2019-05-29T02:57:01.798Z,9.95
2019-05-29T02:58:01.792Z,9.95
2019-05-29T02:59:01.778Z,9.95
2019-05-29T03:00:01.790Z,9.96
2019-05-29T03:01:01.843Z,9.93
2019-05-29T03:02:01.753Z,9.89
2019-05-29T03:03:01.741Z,9.86
2019-05-29T03:04:01.736Z,9.85
2019-05-29T03:05:01.748Z,9.85
2019-05-29T03:06:01.707Z,9.85
2019-05-29T03:07:01.705Z,9.85
2019-05-29T03:08:01.686Z,9.85
2019-05-29T03:09:01.675Z,9.86
2019-05-29T03:10:01.676Z,9.88
2019-05-29T03:11:01.661Z,9.86
2019-05-29T03:12:01.665Z,9.86
2019-05-29T03:13:01.637Z,9.88
2019-05-29T03:14:01.636Z,9.89
2019-05-29T03:15:01.639Z,9.88
2019-05-29T03:16:10.578Z,9.89
2019-05-29T03:17:02.594Z,9.89
2019-05-29T03:18:01.594Z,9.89
2019-05-29T03:19:01.578Z,9.89
2019-05-29T03:20:01.584Z,9.88
2019-05-29T03:21:01.562Z,9.91
2019-05-29T03:22:01.552Z,9.89
2019-05-29T03:23:01.543Z,9.91
2019-05-29T03:24:01.544Z,9.89
2019-05-29T03:25:01.544Z,9.88
2019-05-29T03:26:01.514Z,9.83
2019-05-29T03:27:01.514Z,9.81
2019-05-29T03:28:01.499Z,9.85
2019-05-29T03:29:01.482Z,9.85
2019-05-29T03:30:01.499Z,9.86
2019-05-29T03:31:01.496Z,9.85
2019-05-29T03:32:01.443Z,9.86
2019-05-29T03:33:01.465Z,9.85
2019-05-29T03:34:01.476Z,9.86
2019-05-29T03:35:01.422Z,9.86
2019-05-29T03:36:01.434Z,9.83
2019-05-29T03:37:01.410Z,9.83
2019-05-29T03:38:01.401Z,9.81
2019-05-29T03:39:01.392Z,9.81
2019-05-29T03:40:01.408Z,9.83
2019-05-29T03:41:01.392Z,9.81
2019-05-29T03:42:01.368Z,9.78
2019-05-29T03:43:01.369Z,9.77
2019-05-29T03:44:01.332Z,9.77
2019-05-29T03:45:01.321Z,9.75
2019-05-29T03:46:01.319Z,9.75
2019-05-29T03:47:01.301Z,9.77
2019-05-29T03:48:01.300Z,9.77
2019-05-29T03:49:01.297Z,9.80
2019-05-29T03:50:01.273Z,9.85
2019-05-29T03:51:01.279Z,9.85
2019-05-29T03:52:01.260Z,9.86
2019-05-29T03:53:01.277Z,9.88
2019-05-29T03:54:01.240Z,9.89
2019-05-29T03:55:01.230Z,9.91
2019-05-29T03:56:01.229Z,9.92
2019-05-29T03:57:01.208Z,9.92
2019-05-29T03:58:01.198Z,9.93
2019-05-29T03:59:01.202Z,9.91
2019-05-29T04:00:01.200Z,9.89
2019-05-29T04:01:01.182Z,9.86
2019-05-29T04:02:01.165Z,9.88
2019-05-29T04:03:01.157Z,9.88
2019-05-29T04:04:01.148Z,9.89
2019-05-29T04:05:01.129Z,9.88
2019-05-29T04:06:01.128Z,9.85
2019-05-29T04:07:01.118Z,9.86
2019-05-29T04:08:01.105Z,9.88
2019-05-29T04:09:01.108Z,9.89
2019-05-29T04:10:01.076Z,9.89
2019-05-29T04:11:01.087Z,9.93
2019-05-29T04:12:01.067Z,9.91
2019-05-29T04:13:01.054Z,9.93
2019-05-29T04:14:01.038Z,9.96
2019-05-29T04:15:01.037Z,10.01
2019-05-29T04:16:01.027Z,10.02
2019-05-29T04:17:01.030Z,10.01
2019-05-29T04:18:01.005Z,10.02
2019-05-29T04:19:00.995Z,10.01
2019-05-29T04:20:00.984Z,10.01
2019-05-29T04:21:00.984Z,9.96
2019-05-29T04:22:00.954Z,9.95
2019-05-29T04:23:00.956Z,9.96
2019-05-29T04:24:00.953Z,9.95
2019-05-29T04:25:00.942Z,9.96
2019-05-29T04:26:00.942Z,9.96
2019-05-29T04:27:00.915Z,9.96
2019-05-29T04:28:00.909Z,9.98
2019-05-29T04:29:00.896Z,9.99
2019-05-29T04:30:00.884Z,10.01
2019-05-29T04:31:00.893Z,10.01
2019-05-29T04:32:00.864Z,10.01
2019-05-29T04:33:00.863Z,9.99
2019-05-29T04:34:00.863Z,9.98
2019-05-29T04:35:00.832Z,9.98
2019-05-29T04:36:00.844Z,10.01
2019-05-29T04:37:00.814Z,10.04
2019-05-29T04:38:00.802Z,10.07
2019-05-29T04:39:00.801Z,10.11
2019-05-29T04:40:00.783Z,10.16
2019-05-29T04:41:00.797Z,10.16
2019-05-29T04:42:00.763Z,10.18
2019-05-29T04:43:00.762Z,10.22
2019-05-29T04:44:00.763Z,10.25
2019-05-29T04:45:00.762Z,10.31
2019-05-29T04:46:00.744Z,10.29
2019-05-29T04:47:11.079Z,10.31
2019-05-29T04:48:01.712Z,10.29
2019-05-29T04:49:00.712Z,10.29
2019-05-29T04:50:00.692Z,10.31
2019-05-29T04:51:00.720Z,10.31
2019-05-29T04:52:00.672Z,10.29
2019-05-29T04:53:00.652Z,10.28
2019-05-29T04:54:00.650Z,10.28
2019-05-29T04:55:00.642Z,10.29
2019-05-29T04:56:00.630Z,10.32
2019-05-29T04:57:00.633Z,10.38
2019-05-29T04:58:00.624Z,10.42
2019-05-29T04:59:00.605Z,10.46
2019-05-29T05:00:00.592Z,10.49
2019-05-29T05:01:00.581Z,10.51
2019-05-29T05:02:00.587Z,10.52
2019-05-29T05:03:00.568Z,10.54
2019-05-29T05:04:00.549Z,10.57
2019-05-29T05:05:00.544Z,10.60
2019-05-29T05:06:00.528Z,10.62
2019-05-29T05:07:00.531Z,10.62
2019-05-29T05:08:00.518Z,10.62
2019-05-29T05:09:00.501Z,10.62
2019-05-29T05:10:00.488Z,10.65
2019-05-29T05:11:00.479Z,10.66
2019-05-29T05:12:00.488Z,10.66
2019-05-29T05:13:00.468Z,10.70
2019-05-29T05:14:01.715Z,10.73
2019-05-29T05:15:00.448Z,10.76
2019-05-29T05:16:00.436Z,10.81
2019-05-29T05:17:00.428Z,10.80
2019-05-29T05:18:00.423Z,10.84
2019-05-29T05:19:00.396Z,10.86
2019-05-29T05:20:00.386Z,10.88
2019-05-29T05:21:00.386Z,10.91
2019-05-29T05:22:00.388Z,10.95
2019-05-29T05:23:00.357Z,10.95
2019-05-29T05:24:00.348Z,10.95
2019-05-29T05:25:00.365Z,10.94
2019-05-29T05:26:00.485Z,10.93
2019-05-29T05:27:00.336Z,10.93
2019-05-29T05:28:00.365Z,10.94
2019-05-29T05:29:00.324Z,10.95
2019-05-29T05:30:00.288Z,10.98
2019-05-29T05:31:00.287Z,10.95
2019-05-29T05:32:00.370Z,10.94
2019-05-29T05:33:00.275Z,10.91
2019-05-29T05:34:00.264Z,10.91
2019-05-29T05:35:00.264Z,10.94
2019-05-29T05:36:00.264Z,10.98
2019-05-29T05:37:00.235Z,11.03
2019-05-29T05:38:00.224Z,11.06
2019-05-29T05:39:00.195Z,11.08
2019-05-29T05:40:00.193Z,11.09
2019-05-29T05:41:00.183Z,11.12
2019-05-29T05:42:00.204Z,11.16
2019-05-29T05:43:00.164Z,11.17
2019-05-29T05:44:00.155Z,11.20
2019-05-29T05:45:00.151Z,11.20
2019-05-29T05:46:00.132Z,11.23
2019-05-29T05:47:00.121Z,11.24
2019-05-29T05:48:00.123Z,11.24
2019-05-29T05:49:00.101Z,11.26
2019-05-29T05:50:00.092Z,11.26
2019-05-29T05:51:00.081Z,11.26
2019-05-29T05:52:00.062Z,11.27
2019-05-29T05:53:00.074Z,11.27
2019-05-29T05:54:00.044Z,11.27
2019-05-29T05:55:00.041Z,11.30
2019-05-29T05:56:00.032Z,11.30
2019-05-29T05:57:00.012Z,11.31
2019-05-29T05:58:00.022Z,11.31
2019-05-29T05:59:00.002Z,11.35
2019-05-29T05:59:59.985Z,11.38
2019-05-29T06:00:59.990Z,11.39
2019-05-29T06:01:59.982Z,11.42
2019-05-29T06:02:59.963Z,11.44
2019-05-29T06:03:59.940Z,11.46
2019-05-29T06:04:59.929Z,11.48
2019-05-29T06:05:59.937Z,11.53
2019-05-29T06:07:07.769Z,11.53
2019-05-29T06:07:59.958Z,11.57
2019-05-29T06:08:59.932Z,11.57
2019-05-29T06:09:59.926Z,11.57
2019-05-29T06:10:59.949Z,11.57
2019-05-29T06:11:59.877Z,11.57
2019-05-29T06:12:59.958Z,11.59
2019-05-29T06:13:59.848Z,11.59
2019-05-29T06:14:59.943Z,11.60
2019-05-29T06:15:59.867Z,11.63
2019-05-29T06:16:59.858Z,11.63
2019-05-29T06:18:19.371Z,11.63
2019-05-29T06:19:00.797Z,11.63
2019-05-29T06:19:59.781Z,11.64
2019-05-29T06:20:59.785Z,11.66
2019-05-29T06:21:59.757Z,11.67
2019-05-29T06:22:59.785Z,11.70
2019-05-29T06:23:59.751Z,11.67
2019-05-29T06:24:59.736Z,11.63
2019-05-29T06:26:00.243Z,11.60
2019-05-29T06:26:59.707Z,11.60
2019-05-29T06:27:59.718Z,11.62
2019-05-29T06:28:59.730Z,11.64
2019-05-29T06:29:59.674Z,11.67
2019-05-29T06:30:59.677Z,11.70
2019-05-29T06:31:59.648Z,11.74
2019-05-29T06:32:59.668Z,11.77
2019-05-29T06:33:59.667Z,11.81
2019-05-29T06:34:59.636Z,11.85
2019-05-29T06:35:59.612Z,11.87
2019-05-29T06:36:59.607Z,11.90
2019-05-29T06:37:59.595Z,11.90
2019-05-29T06:38:59.606Z,11.93
2019-05-29T06:39:59.585Z,11.94
2019-05-29T06:40:59.577Z,11.96
2019-05-29T06:41:59.564Z,11.98
2019-05-29T06:42:59.545Z,12.00
2019-05-29T06:43:59.548Z,12.01
2019-05-29T06:44:59.577Z,12.00
2019-05-29T06:45:59.536Z,12.03
2019-05-29T06:46:59.505Z,12.04
2019-05-29T06:47:59.519Z,12.05
2019-05-29T06:49:00.973Z,12.05
2019-05-29T06:49:59.463Z,12.08
2019-05-29T06:50:59.476Z,12.13
2019-05-29T06:51:59.463Z,12.18
2019-05-29T06:52:59.453Z,12.21
2019-05-29T06:53:59.463Z,12.21
2019-05-29T06:54:59.424Z,12.22
2019-05-29T06:56:01.032Z,12.23
2019-05-29T06:56:59.417Z,12.22
2019-05-29T06:57:59.418Z,12.23
2019-05-29T06:58:59.382Z,12.25
2019-05-29T06:59:59.371Z,12.29
2019-05-29T07:00:59.364Z,12.31
2019-05-29T07:01:59.423Z,12.33
2019-05-29T07:02:59.332Z,12.36
2019-05-29T07:04:11.510Z,12.36
2019-05-29T07:05:00.322Z,12.38
2019-05-29T07:05:59.303Z,12.41
2019-05-29T07:06:59.286Z,12.43
2019-05-29T07:08:15.033Z,12.44
2019-05-29T07:09:00.281Z,12.48
2019-05-29T07:09:59.251Z,12.49
2019-05-29T07:10:59.271Z,12.49
2019-05-29T07:11:59.245Z,12.52
2019-05-29T07:12:59.251Z,12.54
2019-05-29T07:13:59.236Z,12.56
2019-05-29T07:14:59.211Z,12.61
2019-05-29T07:15:59.354Z,12.69
2019-05-29T07:16:59.190Z,12.77
2019-05-29T07:17:59.172Z,12.84
2019-05-29T07:20:03.832Z,12.95
2019-05-29T07:20:59.157Z,13.01
2019-05-29T07:21:59.140Z,13.10
2019-05-29T07:22:59.149Z,13.21
2019-05-29T07:23:59.111Z,13.31
2019-05-29T07:24:59.090Z,13.41
2019-05-29T07:25:59.176Z,13.50
2019-05-29T07:26:59.108Z,13.59
2019-05-29T07:27:59.068Z,13.66
2019-05-29T07:29:08.113Z,13.71
2019-05-29T07:30:00.029Z,13.79
2019-05-29T07:31:02.753Z,13.79
2019-05-29T07:31:59.010Z,13.81
2019-05-29T07:32:59.280Z,13.84
2019-05-29T07:33:59.109Z,13.86
2019-05-29T07:35:03.533Z,13.88
2019-05-29T07:35:59.967Z,13.93
2019-05-29T07:36:59.068Z,13.98
2019-05-29T07:37:58.948Z,14.02
2019-05-29T07:39:03.688Z,14.06
2019-05-29T07:39:59.927Z,14.11
2019-05-29T07:40:58.908Z,14.16
2019-05-29T07:41:58.897Z,14.19
2019-05-29T07:42:58.889Z,14.19
2019-05-29T07:43:58.887Z,14.19
2019-05-29T07:44:58.857Z,14.12
2019-05-29T07:45:58.888Z,14.12
2019-05-29T07:46:58.848Z,14.13
2019-05-29T07:47:58.842Z,14.12
2019-05-29T07:48:58.835Z,14.06
2019-05-29T07:49:58.845Z,14.02
2019-05-29T07:51:07.035Z,13.99
2019-05-29T07:51:59.786Z,13.98
2019-05-29T07:52:59.212Z,13.98
2019-05-29T07:53:58.746Z,13.96
2019-05-29T07:54:58.763Z,13.94
2019-05-29T07:55:58.726Z,13.94
2019-05-29T07:56:58.725Z,13.99
2019-05-29T07:57:58.707Z,14.01
2019-05-29T07:59:03.288Z,14.01
2019-05-29T07:59:59.685Z,13.98
2019-05-29T08:01:11.690Z,13.93
2019-05-29T08:01:59.661Z,13.88
2019-05-29T08:02:58.646Z,13.87
2019-05-29T08:03:58.637Z,13.88
2019-05-29T08:04:58.646Z,13.86
2019-05-29T08:05:58.617Z,13.81
2019-05-29T08:06:58.604Z,13.72
2019-05-29T08:07:58.587Z,13.69
2019-05-29T08:08:58.588Z,13.72
2019-05-29T08:09:58.581Z,13.71
2019-05-29T08:10:58.555Z,13.73
2019-05-29T08:11:58.535Z,13.79
2019-05-29T08:12:58.546Z,13.80
2019-05-29T08:13:58.515Z,13.83
2019-05-29T08:14:58.534Z,13.88
2019-05-29T08:16:02.975Z,13.84
2019-05-29T08:16:58.505Z,13.86
2019-05-29T08:17:58.470Z,13.86
2019-05-29T08:18:58.456Z,13.88
2019-05-29T08:20:06.449Z,13.91
2019-05-29T08:20:59.432Z,13.90
2019-05-29T08:21:58.437Z,13.90
2019-05-29T08:22:58.414Z,13.88
2019-05-29T08:23:58.414Z,13.84
2019-05-29T08:24:58.407Z,13.81
2019-05-29T08:25:58.374Z,13.81
2019-05-29T08:26:58.374Z,13.80
2019-05-29T08:27:58.343Z,13.80
2019-05-29T08:28:58.343Z,13.76
2019-05-29T08:29:58.343Z,13.79
2019-05-29T08:30:58.339Z,13.81
2019-05-29T08:31:58.297Z,13.83
2019-05-29T08:32:58.306Z,13.84
2019-05-29T08:33:58.273Z,13.87
2019-05-29T08:34:58.295Z,13.87
2019-05-29T08:36:00.375Z,13.88
2019-05-29T08:37:06.509Z,13.94
2019-05-29T08:37:59.261Z,14.02
2019-05-29T08:38:58.227Z,14.11
2019-05-29T08:39:58.241Z,14.20
2019-05-29T08:40:58.192Z,14.30
2019-05-29T08:42:21.026Z,14.41
2019-05-29T08:42:59.242Z,14.52
2019-05-29T08:43:58.181Z,14.59
2019-05-29T08:44:58.392Z,14.69
2019-05-29T08:45:58.160Z,14.85
2019-05-29T08:47:09.632Z,15.00
2019-05-29T08:47:59.110Z,15.11
2019-05-29T08:48:58.101Z,15.20
2019-05-29T08:50:16.841Z,15.30
2019-05-29T08:50:59.071Z,15.34
2019-05-29T08:52:11.326Z,15.38
2019-05-29T08:53:02.430Z,15.41
2019-05-29T08:53:58.042Z,15.41
2019-05-29T08:54:58.087Z,15.27
2019-05-29T08:55:58.012Z,15.20
2019-05-29T08:56:58.002Z,15.13
2019-05-29T08:57:58.044Z,15.11
2019-05-29T08:58:57.989Z,15.07
2019-05-29T08:59:57.990Z,15.07
2019-05-29T09:00:57.953Z,15.04
2019-05-29T09:01:57.942Z,15.05
2019-05-29T09:02:57.930Z,15.09
2019-05-29T09:03:57.923Z,15.12
2019-05-29T09:04:57.909Z,15.12
2019-05-29T09:06:08.486Z,15.09
2019-05-29T09:06:58.881Z,15.07
2019-05-29T09:07:57.867Z,15.01
2019-05-29T09:08:57.855Z,14.95
2019-05-29T09:09:57.850Z,14.87
2019-05-29T09:10:57.821Z,14.83
2019-05-29T09:11:57.811Z,14.80
2019-05-29T09:13:04.677Z,14.79
2019-05-29T09:13:58.782Z,14.78
2019-05-29T09:14:57.795Z,14.75
2019-05-29T09:15:57.760Z,14.72
2019-05-29T09:16:57.765Z,14.71
2019-05-29T09:17:57.740Z,14.69
2019-05-29T09:18:57.723Z,14.71
2019-05-29T09:19:57.732Z,14.72
2019-05-29T09:21:03.480Z,14.72
2019-05-29T09:21:58.679Z,14.67
2019-05-29T09:22:57.700Z,14.64
2019-05-29T09:23:58.920Z,14.67
2019-05-29T09:24:57.662Z,14.69
2019-05-29T09:26:13.590Z,14.75
2019-05-29T09:26:58.618Z,14.82
2019-05-29T09:27:57.620Z,14.83
2019-05-29T09:28:57.763Z,14.82
2019-05-29T09:29:57.599Z,14.85
2019-05-29T09:30:57.586Z,14.75
2019-05-29T09:31:57.646Z,14.71
2019-05-29T09:32:57.558Z,14.69
2019-05-29T09:33:57.538Z,14.67
2019-05-29T09:34:57.548Z,14.57
2019-05-29T09:35:57.518Z,14.49
2019-05-29T09:36:57.498Z,14.42
2019-05-29T09:37:57.509Z,14.45
2019-05-29T09:38:57.498Z,14.45
2019-05-29T09:39:57.487Z,14.49
2019-05-29T09:40:57.458Z,14.53
2019-05-29T09:41:57.457Z,14.56
2019-05-29T09:42:57.420Z,14.63
2019-05-29T09:43:59.604Z,14.71
2019-05-29T09:44:57.398Z,14.69
2019-05-29T09:45:57.418Z,14.72
2019-05-29T09:46:57.379Z,14.79
2019-05-29T09:47:57.358Z,14.82
2019-05-29T09:49:01.116Z,14.79
2019-05-29T09:49:57.339Z,14.78
2019-05-29T09:50:57.345Z,14.75
2019-05-29T09:51:57.920Z,14.79
2019-05-29T09:52:59.001Z,14.75
2019-05-29T09:53:58.252Z,14.72
2019-05-29T09:54:58.266Z,14.71
2019-05-29T09:55:58.734Z,14.74
2019-05-29T09:56:58.375Z,14.72
2019-05-29T09:57:58.568Z,14.67
2019-05-29T09:58:58.474Z,14.61
2019-05-29T09:59:59.560Z,14.57
2019-05-29T10:01:15.478Z,14.54
2019-05-29T10:02:00.302Z,14.53
2019-05-29T10:02:59.322Z,14.57
2019-05-29T10:03:59.661Z,14.60
2019-05-29T10:04:58.113Z,14.63
2019-05-29T10:05:57.561Z,14.69
2019-05-29T10:06:57.609Z,14.71
2019-05-29T10:07:58.114Z,14.74
2019-05-29T10:08:58.022Z,14.74
2019-05-29T10:09:58.608Z,14.74
2019-05-29T10:11:04.724Z,14.79
2019-05-29T10:12:02.211Z,14.85
2019-05-29T10:12:58.209Z,14.91
2019-05-29T10:13:58.677Z,14.85
2019-05-29T10:14:57.628Z,14.82
2019-05-29T10:15:57.745Z,14.82
2019-05-29T10:16:59.291Z,14.80
2019-05-29T10:17:58.492Z,14.82
2019-05-29T10:18:58.527Z,14.83
2019-05-29T10:19:57.251Z,14.87
2019-05-29T10:20:58.089Z,14.93
2019-05-29T10:21:58.332Z,14.98
2019-05-29T10:22:57.179Z,15.07
2019-05-29T10:23:57.980Z,15.13
2019-05-29T10:24:57.959Z,15.18
2019-05-29T10:25:58.429Z,15.19
2019-05-29T10:26:57.502Z,15.20
2019-05-29T10:27:56.875Z,15.19
2019-05-29T10:29:08.015Z,15.16
2019-05-29T10:29:57.844Z,15.15
2019-05-29T10:30:56.865Z,15.15
2019-05-29T10:31:56.828Z,15.13
2019-05-29T10:32:56.826Z,15.13
2019-05-29T10:33:56.793Z,15.15
2019-05-29T10:34:56.780Z,15.18
2019-05-29T10:35:56.778Z,15.19
2019-05-29T10:36:56.764Z,15.22
2019-05-29T10:37:56.743Z,15.23
2019-05-29T10:38:56.730Z,15.28
2019-05-29T10:39:56.731Z,15.33
2019-05-29T10:41:06.444Z,15.37
2019-05-29T10:41:57.704Z,15.41
2019-05-29T10:42:56.682Z,15.51
2019-05-29T10:43:56.674Z,15.58
2019-05-29T10:44:56.654Z,15.66
2019-05-29T10:45:56.646Z,15.70
2019-05-29T10:46:56.789Z,15.60
2019-05-29T10:47:56.621Z,15.60
2019-05-29T10:48:56.800Z,15.64
2019-05-29T10:49:56.594Z,15.64
2019-05-29T10:50:56.597Z,15.60
2019-05-29T10:52:10.917Z,15.62
2019-05-29T10:52:57.553Z,15.56
2019-05-29T10:53:58.799Z,15.51
2019-05-29T10:54:56.553Z,15.56
2019-05-29T10:55:56.523Z,15.62
2019-05-29T10:56:56.529Z,15.74
2019-05-29T10:57:56.518Z,15.85
2019-05-29T10:58:59.821Z,15.91
2019-05-29T10:59:56.512Z,15.96
2019-05-29T11:00:56.486Z,16.01
2019-05-29T11:01:56.472Z,16.06
2019-05-29T11:02:57.674Z,16.13
2019-05-29T11:03:56.432Z,16.16
2019-05-29T11:04:59.102Z,16.16
2019-05-29T11:05:56.611Z,16.18
2019-05-29T11:06:56.904Z,16.16
2019-05-29T11:07:56.408Z,16.08
2019-05-29T11:08:56.425Z,16.03
2019-05-29T11:09:56.358Z,15.98
2019-05-29T11:10:56.423Z,15.88
2019-05-29T11:11:57.737Z,15.74
2019-05-29T11:12:56.760Z,15.52
2019-05-29T11:13:57.164Z,15.37
2019-05-29T11:14:56.931Z,15.25
2019-05-29T11:15:56.892Z,15.19
2019-05-29T11:16:57.612Z,15.12
2019-05-29T11:17:57.387Z,15.03
2019-05-29T11:18:57.351Z,14.94
2019-05-29T11:19:58.081Z,14.87
2019-05-29T11:20:57.538Z,14.85
2019-05-29T11:22:01.057Z,14.67
2019-05-29T11:22:57.809Z,14.44
2019-05-29T11:23:56.194Z,14.38
2019-05-29T11:24:56.647Z,14.39
2019-05-29T11:25:56.220Z,14.45
2019-05-29T11:26:56.697Z,14.53
2019-05-29T11:27:56.681Z,14.63
2019-05-29T11:28:56.645Z,14.67
2019-05-29T11:29:57.096Z,14.75
2019-05-29T11:30:57.229Z,14.83
2019-05-29T11:31:56.976Z,14.93
2019-05-29T11:32:57.524Z,14.98
2019-05-29T11:33:57.159Z,15.07
2019-05-29T11:34:57.418Z,15.18
2019-05-29T11:36:08.557Z,15.33
2019-05-29T11:36:58.245Z,15.44
2019-05-29T11:37:56.572Z,15.59
2019-05-29T11:38:56.911Z,15.71
2019-05-29T11:39:56.836Z,15.84
2019-05-29T11:41:22.815Z,15.95
2019-05-29T11:41:56.959Z,16.03
2019-05-29T11:42:56.936Z,16.08
2019-05-29T11:43:56.901Z,16.18
2019-05-29T11:44:56.938Z,16.30
2019-05-29T11:45:57.273Z,16.41
2019-05-29T11:46:56.181Z,16.50
2019-05-29T11:47:57.336Z,16.59
2019-05-29T11:48:57.215Z,16.66
2019-05-29T11:50:00.384Z,16.75
2019-05-29T11:50:56.963Z,16.82
2019-05-29T11:52:18.596Z,16.90
2019-05-29T11:52:56.875Z,16.92
2019-05-29T11:53:55.942Z,16.98
2019-05-29T11:54:59.203Z,17.00
2019-05-29T11:55:56.017Z,17.03
2019-05-29T11:56:57.245Z,16.96
2019-05-29T11:57:55.917Z,16.84
2019-05-29T11:58:56.924Z,16.63
2019-05-29T11:59:59.168Z,16.47
2019-05-29T12:00:55.739Z,16.45
2019-05-29T12:01:57.296Z,16.44
2019-05-29T12:02:55.895Z,16.54
2019-05-29T12:04:19.593Z,16.63
2019-05-29T12:04:57.217Z,16.63
2019-05-29T12:05:55.757Z,16.70
2019-05-29T12:06:55.763Z,16.75
2019-05-29T12:07:55.676Z,16.80
2019-05-29T12:08:55.825Z,16.82
2019-05-29T12:09:55.636Z,16.85
2019-05-29T12:10:55.618Z,16.85
2019-05-29T12:11:56.090Z,16.88
2019-05-29T12:12:55.617Z,16.91
2019-05-29T12:13:56.101Z,16.95
2019-05-29T12:15:05.978Z,16.96
2019-05-29T12:15:57.641Z,17.00
2019-05-29T12:16:55.949Z,17.00
2019-05-29T12:18:09.161Z,16.96
2019-05-29T12:18:57.734Z,16.91
2019-05-29T12:19:56.069Z,16.85
2019-05-29T12:20:56.160Z,16.75
2019-05-29T12:21:56.478Z,16.62
2019-05-29T12:23:19.783Z,16.47
2019-05-29T12:23:56.488Z,16.32
2019-05-29T12:24:56.505Z,16.27
2019-05-29T12:26:16.548Z,16.23
2019-05-29T12:26:56.509Z,16.14
2019-05-29T12:28:04.297Z,16.10
2019-05-29T12:29:03.667Z,16.06
2019-05-29T12:29:56.683Z,15.98
2019-05-29T12:30:56.798Z,15.98
2019-05-29T12:31:56.971Z,15.99
2019-05-29T12:32:55.412Z,16.03
2019-05-29T12:33:55.374Z,15.98
2019-05-29T12:34:57.164Z,15.92
2019-05-29T12:35:55.382Z,15.92
2019-05-29T12:36:55.414Z,15.95
2019-05-29T12:37:55.348Z,15.99
2019-05-29T12:38:55.323Z,16.01
2019-05-29T12:39:55.461Z,16.04
2019-05-29T12:40:55.346Z,16.07
2019-05-29T12:41:55.479Z,16.11
2019-05-29T12:42:55.694Z,16.17
2019-05-29T12:43:55.324Z,16.26
2019-05-29T12:44:55.465Z,16.34
2019-05-29T12:45:55.661Z,16.42
2019-05-29T12:46:55.575Z,16.51
2019-05-29T12:47:56.535Z,16.62
2019-05-29T12:48:55.384Z,16.72
2019-05-29T12:49:55.525Z,16.85
2019-05-29T12:50:55.999Z,16.98
2019-05-29T12:51:55.381Z,17.12
2019-05-29T12:52:55.705Z,17.24
2019-05-29T12:53:55.838Z,17.35
2019-05-29T12:54:55.887Z,17.42
2019-05-29T12:55:56.148Z,17.43
2019-05-29T12:56:55.781Z,17.42
2019-05-29T12:57:55.869Z,17.39
2019-05-29T12:58:56.043Z,17.27
2019-05-29T12:59:55.881Z,17.14
2019-05-29T13:00:56.423Z,16.99
2019-05-29T13:01:56.207Z,16.87